Date,TemperatureHighF,TemperatureAvgF,TemperatureLowF,DewpointHighF,DewpointAvgF,DewpointLowF,HumidityHigh,HumidityAvg,HumidityLow,PressureMaxIn,PressureMinIn,WindSpeedMaxMPH,WindSpeedAvgMPH,GustSpeedMaxMPH,PrecipitationSumIn
2013-3-1,60,44,34,46,32,30,98,68,36,28.41,28.35,15,2,15,0.00
2013-3-2,54,39,30,43,32,19,97,79,42,28.38,28.08,7,0,7,0.04
2013-3-3,51,34,26,24,18,6,82,56,20,28.38,28.14,17,2,17,0.00
2013-3-4,53,33,21,25,20,16,82,61,31,28.44,28.23,7,0,7,0.00
2013-3-5,49,34,25,27,23,18,84,66,33,28.23,27.99,6,0,6,0.00
2013-3-6,44,35,32,35,31,27,94,84,67,27.99,27.82,2,0,2,0.12
2013-3-7,54,38,30,42,32,28,97,82,50,28.23,27.96,6,0,6,0.21
2013-3-8,57,34,25,48,28,23,97,81,38,28.35,28.17,7,0,7,0.00
2013-3-9,59,34,23,40,25,21,95,74,33,28.52,28.35,5,0,5,0.00
2013-3-10,64,40,27,36,28,24,88,66,27,28.52,28.38,9,1,9,0.00
2013-3-11,57,36,23,37,25,19,90,68,31,28.50,28.35,6,0,6,0.00
2013-3-12,57,42,34,44,35,30,94,76,42,28.35,28.14,12,1,12,0.04
2013-3-13,66,46,37,46,38,34,93,75,40,28.29,28.17,6,1,6,0.00
2013-3-14,64,45,37,49,37,24,98,78,24,28.29,28.11,12,1,12,0.00
2013-3-15,66,45,34,50,33,26,93,70,26,28.32,28.17,10,1,10,0.00
2013-3-16,54,40,31,41,30,22,97,72,35,28.23,27.90,12,1,12,0.00
2013-3-17,50,37,29,29,22,14,89,56,28,28.20,27.96,20,2,20,0.00
2013-3-18,54,36,26,40,22,14,88,60,30,28.38,28.14,17,1,17,0.08
2013-3-19,50,36,24,28,19,13,82,53,29,28.38,27.99,8,1,8,0.05
2013-3-20,49,40,32,40,33,20,97,79,52,27.96,27.70,15,1,15,0.74
2013-3-21,50,34,26,35,24,18,96,68,33,28.23,27.96,11,1,11,0.08
2013-3-22,40,26,22,27,18,15,82,73,52,28.44,28.23,6,0,6,0.00
2013-3-23,51,34,24,24,17,11,75,52,28,28.50,28.38,9,1,9,0.00
2013-3-24,54,34,23,24,18,16,76,56,26,28.50,28.35,6,1,6,0.00
2013-3-25,58,36,25,28,21,18,78,57,25,28.35,28.17,6,1,6,0.00
2013-3-26,63,40,25,34,26,21,86,61,25,28.20,28.08,6,1,6,0.00
2013-3-27,62,44,32,36,31,28,89,63,29,28.20,28.11,5,0,5,0.00
2013-3-28,62,42,31,40,33,28,95,72,36,28.29,28.17,7,0,7,0.00
2013-3-29,71,46,31,41,31,26,97,63,22,28.38,28.26,12,1,12,0.00
2013-3-30,70,47,30,38,32,25,89,61,23,28.44,28.29,8,1,8,0.00
2013-3-31,74,48,32,43,34,29,95,64,23,28.32,28.11,6,1,6,0.00